Time;durP1;ratioP1;P1;durP2;ratioP2;P2;SDS_P1;SDS_P2;PMS_P1;PMS_P2;Temp;Humidity;BMP_temperature;BMP_pressure;BME280_temperature;BME280_humidity;BME280_pressure;Samples;Min_cycle;Max_cycle;Signal;HPM_P1;HPM_P2
2021/05/13 00:01:46;;;;;;;7.45;2.67;;;12.80;99.90;;;12.20;92.29;99604.41;4988642;28;20041;-49
2021/05/13 00:04:12;;;;;;;8.38;3.92;;;12.80;99.90;;;12.20;91.97;99607.84;4989279;28;20122;-46
2021/05/13 00:06:38;;;;;;;4.95;2.63;;;12.80;99.90;;;12.19;92.12;99611.44;4987965;28;20132;-51
2021/05/13 00:09:09;;;;;;;3.08;2.78;;;12.80;99.90;;;12.15;92.26;99601.50;4988289;28;20055;-49
2021/05/13 00:11:37;;;;;;;7.47;3.20;;;12.80;99.90;;;12.15;92.20;99601.50;4987804;28;20096;-51
2021/05/13 00:14:06;;;;;;;6.00;3.45;;;12.70;99.90;;;12.19;92.37;99603.59;4989368;28;20035;-53
2021/05/13 00:16:35;;;;;;;9.00;4.13;;;12.80;99.90;;;12.23;92.38;99594.44;4988486;28;20034;-52
2021/05/13 00:19:07;;;;;;;4.93;3.88;;;12.80;99.90;;;12.24;92.19;99596.06;4988319;28;20133;-51
2021/05/13 00:21:38;;;;;;;5.30;3.92;;;12.80;99.90;;;12.23;92.04;99594.44;4988231;28;20030;-46
2021/05/13 00:24:07;;;;;;;4.38;3.95;;;12.80;99.90;;;12.24;92.16;99595.25;4988545;28;20546;-51
2021/05/13 00:26:48;;;;;;;9.80;4.10;;;12.90;99.90;;;12.27;92.03;99592.28;4986618;28;20042;-51
2021/05/13 00:29:26;;;;;;;4.78;4.15;;;12.80;99.90;;;12.29;91.83;99592.88;4988749;28;20146;-50
2021/05/13 00:31:52;;;;;;;6.38;4.68;;;12.90;99.90;;;12.34;91.52;99587.13;4987629;28;20046;-51
2021/05/13 00:34:19;;;;;;;7.50;4.28;;;12.90;99.90;;;12.35;91.35;99580.91;4988660;28;20511;-50
2021/05/13 00:36:44;;;;;;;6.22;3.60;;;12.90;99.90;;;12.35;91.33;99581.72;4988052;28;20085;-53
2021/05/13 00:39:11;;;;;;;4.95;3.95;;;12.90;99.90;;;12.39;91.00;99571.75;4987754;28;20413;-52
2021/05/13 00:41:38;;;;;;;4.32;3.55;;;13.00;99.90;;;12.39;90.95;99566.53;4986623;28;20138;-51
2021/05/13 00:44:06;;;;;;;8.23;4.43;;;13.00;99.90;;;12.42;90.79;99574.00;4988648;28;20038;-53
2021/05/13 00:46:33;;;;;;;4.63;3.67;;;13.00;99.90;;;12.42;91.19;99574.00;4988634;28;20038;-49
2021/05/13 00:49:05;;;;;;;10.20;4.50;;;13.00;99.90;;;12.44;91.26;99570.22;4988119;28;20148;-51
2021/05/13 00:51:32;;;;;;;6.97;4.65;;;13.10;99.90;;;12.47;91.00;99571.66;4988541;28;20089;-50
2021/05/13 00:53:58;;;;;;;7.50;3.53;;;13.00;99.90;;;12.47;90.69;99567.25;4985266;28;20050;-50
2021/05/13 00:56:27;;;;;;;5.97;4.13;;;13.10;99.90;;;12.48;90.70;99566.28;4986770;28;20482;-50
2021/05/13 00:58:58;;;;;;;5.15;3.70;;;13.00;99.90;;;12.47;90.81;99566.44;4987582;28;20359;-50
2021/05/13 01:01:25;;;;;;;5.75;3.42;;;13.00;99.90;;;12.47;90.43;99564.66;4987509;28;20042;-49
2021/05/13 01:03:51;;;;;;;3.13;2.75;;;13.10;99.90;;;12.50;89.99;99564.28;4987641;28;20664;-51
2021/05/13 01:06:17;;;;;;;4.72;3.17;;;13.00;99.90;;;12.50;90.04;99558.25;4988667;28;20481;-51
2021/05/13 01:08:43;;;;;;;4.75;3.63;;;13.10;99.90;;;12.50;90.46;99558.25;4993141;28;20053;-51
2021/05/13 01:11:13;;;;;;;6.72;3.85;;;13.10;99.90;;;12.50;90.77;99558.25;4987611;28;20034;-46
2021/05/13 01:14:10;;;;;;;8.73;3.72;;;13.10;99.90;;;12.47;91.20;99556.81;4987317;28;20066;-48
2021/05/13 01:16:50;;;;;;;5.28;3.55;;;13.10;99.90;;;12.47;90.42;99551.59;4986772;28;20038;-53
2021/05/13 01:19:18;;;;;;;5.15;3.33;;;13.10;99.90;;;12.47;90.30;99548.16;4988275;28;20042;-48
2021/05/13 01:21:44;;;;;;;5.85;3.22;;;13.10;99.90;;;12.48;90.31;99549.78;4987376;28;20158;-53
2021/05/13 01:24:12;;;;;;;7.30;3.00;;;13.00;99.90;;;12.47;90.39;99542.94;4987645;28;20040;-51
2021/05/13 01:26:42;;;;;;;4.70;3.58;;;13.00;99.90;;;12.44;90.42;99546.72;4986849;28;20053;-50
2021/05/13 01:29:08;;;;;;;9.25;4.30;;;13.00;99.90;;;12.41;90.65;99544.44;4987765;28;20038;-51
2021/05/13 01:31:34;;;;;;;7.68;4.97;;;13.00;99.90;;;12.38;90.71;99544.81;4987798;28;20042;-46
2021/05/13 01:34:00;;;;;;;7.93;5.55;;;13.00;99.90;;;12.32;91.11;99545.53;4987236;28;20045;-47
2021/05/13 01:36:27;;;;;;;7.90;5.82;;;12.90;99.90;;;12.28;91.79;99544.28;4991602;28;20038;-49
2021/05/13 01:38:57;;;;;;;7.05;5.57;;;12.90;99.90;;;12.28;91.71;99550.31;4991414;28;20049;-49
2021/05/13 01:41:23;;;;;;;8.65;6.13;;;12.90;99.90;;;12.29;91.55;99551.91;4990814;28;20039;-49
2021/05/13 01:43:49;;;;;;;10.20;6.43;;;12.90;99.90;;;12.28;91.47;99546.88;4990505;28;20064;-50
2021/05/13 01:46:15;;;;;;;9.65;6.18;;;12.80;99.90;;;12.27;91.50;99542.66;4990734;28;20038;-46
2021/05/13 01:48:42;;;;;;;9.02;6.22;;;12.80;99.90;;;12.25;91.97;99547.25;4990434;28;20042;-51
2021/05/13 01:51:08;;;;;;;9.95;6.00;;;12.80;99.90;;;12.19;92.20;99542.72;4992051;28;20049;-50
2021/05/13 01:53:34;;;;;;;11.85;6.82;;;12.80;99.90;;;12.17;92.24;99537.69;4990557;28;20102;-51
2021/05/13 01:56:00;;;;;;;10.35;6.45;;;12.70;99.90;;;12.19;92.13;99534.88;4991142;28;20156;-50
2021/05/13 01:58:26;;;;;;;9.45;6.10;;;12.70;99.90;;;12.19;92.43;99537.50;4990825;28;20031;-51
2021/05/13 02:00:52;;;;;;;9.10;6.00;;;12.80;99.90;;;12.20;92.23;99539.13;4991735;28;20407;-49
2021/05/13 02:03:18;;;;;;;11.60;5.90;;;12.80;99.90;;;12.20;92.14;99539.94;4990685;28;20062;-52
2021/05/13 02:05:44;;;;;;;8.98;5.95;;;12.80;99.90;;;12.23;92.02;99541.38;4991472;28;20181;-46
2021/05/13 02:08:10;;;;;;;8.10;6.03;;;12.80;99.90;;;12.24;91.70;99535.16;4990621;28;20374;-49
2021/05/13 02:10:36;;;;;;;7.85;6.00;;;12.80;99.90;;;12.21;92.00;99536.34;4990793;28;20170;-50
2021/05/13 02:13:02;;;;;;;9.38;7.55;;;12.80;99.90;;;12.21;92.16;99532.91;4990021;28;20034;-50
2021/05/13 02:15:31;;;;;;;9.65;6.50;;;12.80;99.90;;;12.21;92.49;99528.50;4991795;28;20125;-50
2021/05/13 02:17:57;;;;;;;11.82;6.68;;;12.80;99.90;;;12.22;92.23;99524.91;4990346;28;20480;-47
2021/05/13 02:20:24;;;;;;;6.22;5.40;;;12.80;99.90;;;12.25;91.91;99524.56;4991743;28;20373;-49
2021/05/13 02:22:51;;;;;;;9.73;4.65;;;12.80;99.90;;;12.30;91.31;99530.03;4989321;28;20096;-50
2021/05/13 02:25:17;;;;;;;8.27;4.75;;;12.80;99.90;;;12.35;90.97;99520.84;4990313;28;20047;-50
2021/05/13 02:27:44;;;;;;;6.28;4.45;;;12.90;99.90;;;12.37;90.97;99521.47;4990491;28;20057;-49
2021/05/13 02:30:13;;;;;;;5.22;4.00;;;12.90;99.90;;;12.37;91.21;99519.69;4990352;28;20046;-50
2021/05/13 02:32:40;;;;;;;5.57;4.22;;;12.90;99.90;;;12.36;91.43;99528.50;4991363;28;20509;-51
2021/05/13 02:35:08;;;;;;;5.85;4.13;;;12.90;99.90;;;12.34;91.78;99516.59;4990071;28;20050;-50
2021/05/13 02:37:34;;;;;;;5.18;4.03;;;12.90;99.90;;;12.34;91.83;99514.00;4990171;28;20459;-49
2021/05/13 02:40:00;;;;;;;5.32;3.90;;;12.90;99.90;;;12.33;92.12;99517.59;4989667;28;20034;-51
2021/05/13 02:42:26;;;;;;;6.53;5.00;;;12.90;99.90;;;12.36;92.22;99517.25;4990992;28;20050;-49
2021/05/13 02:44:52;;;;;;;3.67;3.35;;;13.00;99.90;;;12.36;92.26;99520.66;4990017;28;20034;-50
2021/05/13 02:47:18;;;;;;;4.10;3.58;;;13.00;99.90;;;12.33;92.62;99515.78;4990455;28;20036;-50
2021/05/13 02:49:44;;;;;;;6.65;3.40;;;12.90;99.90;;;12.27;93.17;99522.56;4990220;28;20036;-51
2021/05/13 02:52:10;;;;;;;5.97;3.63;;;12.90;99.90;;;12.25;92.90;99524.56;4991286;28;20034;-51
2021/05/13 02:54:35;;;;;;;6.85;3.72;;;12.90;99.90;;;12.24;92.77;99522.94;4989990;28;20106;-50
2021/05/13 02:57:02;;;;;;;9.55;4.05;;;12.80;99.90;;;12.25;92.84;99521.94;5263830;22;20141;-51
2021/05/13 02:59:49;;;;;;;4.78;3.13;;;12.80;99.90;;;12.25;92.76;99518.50;4993089;28;20043;-51
2021/05/13 03:02:15;;;;;;;3.65;3.25;;;12.80;99.90;;;12.28;92.76;99521.59;4990847;28;20390;-48
2021/05/13 03:04:43;;;;;;;7.63;3.08;;;12.90;99.90;;;12.34;92.32;99516.59;4989827;28;20049;-48
2021/05/13 03:07:10;;;;;;;3.90;2.80;;;12.90;99.90;;;12.35;92.41;99518.22;4987429;28;20030;-46
2021/05/13 03:09:45;;;;;;;3.25;2.95;;;12.90;99.90;;;12.38;92.26;99521.31;4989707;28;20034;-51
2021/05/13 03:12:11;;;;;;;5.80;4.25;;;13.00;99.90;;;12.37;92.11;99522.28;4989511;28;20061;-50
2021/05/13 03:14:38;;;;;;;6.35;4.32;;;13.00;99.90;;;12.34;91.99;99522.66;4988891;28;20081;-51
2021/05/13 03:17:04;;;;;;;6.47;4.25;;;12.90;99.90;;;12.32;92.07;99513.38;4986140;28;20034;-49
2021/05/13 03:19:39;;;;;;;6.13;4.93;;;12.90;99.90;;;12.32;91.89;99515.97;4990144;28;20042;-50
2021/05/13 03:22:08;;;;;;;7.57;4.05;;;12.90;99.90;;;12.32;91.68;99521.19;4972140;28;20398;-53
2021/05/13 03:24:42;;;;;;;5.38;4.47;;;12.90;99.90;;;12.28;92.10;99516.38;4990560;28;20038;-51
2021/05/13 03:27:14;;;;;;;5.57;5.05;;;12.90;99.90;;;12.25;92.45;99516.72;4990090;28;20136;-51
2021/05/13 03:29:40;;;;;;;9.07;4.15;;;12.80;99.90;;;12.26;92.57;99518.34;4988701;28;20536;-52
2021/05/13 03:32:06;;;;;;;7.30;4.10;;;12.90;99.90;;;12.22;92.88;99517.06;4990253;28;20031;-51
2021/05/13 03:34:32;;;;;;;7.20;3.90;;;12.80;99.90;;;12.21;92.99;99520.66;4989448;28;20049;-52
2021/05/13 03:36:58;;;;;;;4.78;3.33;;;12.80;99.90;;;12.21;93.26;99512.84;4990015;28;20154;-49
2021/05/13 03:39:24;;;;;;;5.32;3.75;;;12.80;99.90;;;12.24;93.37;99516.91;4988822;28;20034;-51
2021/05/13 03:41:50;;;;;;;6.32;3.92;;;12.80;99.90;;;12.23;93.25;99510.03;4989294;28;20060;-47
2021/05/13 03:44:16;;;;;;;6.32;4.35;;;12.80;99.90;;;12.20;93.20;99516.44;4989071;28;20386;-50
2021/05/13 03:46:42;;;;;;;5.75;4.55;;;12.80;99.90;;;12.23;93.17;99516.09;4989793;28;20506;-45
2021/05/13 03:49:08;;;;;;;8.68;3.78;;;12.90;99.90;;;12.27;93.16;99511.31;4970719;28;20461;-51
2021/05/13 03:51:34;;;;;;;9.43;4.65;;;12.90;99.90;;;12.27;92.93;99516.53;4989717;28;20080;-50
2021/05/13 03:54:00;;;;;;;7.05;5.18;;;12.90;99.90;;;12.26;93.07;99510.50;4989054;28;20042;-50
2021/05/13 03:56:25;;;;;;;8.80;5.00;;;12.90;99.90;;;12.25;92.85;99518.50;4988593;28;20042;-49
2021/05/13 03:58:58;;;;;;;6.68;4.00;;;12.90;99.90;;;12.31;92.63;99512.56;4987959;28;20117;-50
2021/05/13 04:04:10;;;;;;;7.90;4.20;;;12.90;99.90;;;12.40;92.08;99511.47;4989215;28;20065;-50
2021/05/13 04:06:36;;;;;;;9.82;3.95;;;13.00;99.90;;;12.47;91.65;99511.59;4989506;28;20034;-52
2021/05/13 04:09:09;;;;;;;6.03;3.67;;;13.00;99.90;;;12.50;91.57;99511.22;4987843;28;20108;-50
2021/05/13 04:11:40;;;;;;;7.25;3.65;;;13.10;99.90;;;12.50;91.17;99506.00;4988767;28;20038;-51
2021/05/13 04:14:08;;;;;;;4.55;2.70;;;13.10;99.90;;;12.54;90.75;99512.50;4988717;28;20034;-46
2021/05/13 04:16:38;;;;;;;5.18;3.50;;;13.10;99.90;;;12.60;90.42;99514.38;4988178;28;20038;-46
2021/05/13 04:19:04;;;;;;;3.47;2.25;;;13.10;99.90;;;12.61;90.24;99508.97;4988493;28;20326;-49
2021/05/13 04:21:31;;;;;;;4.20;2.45;;;13.20;99.90;;;12.67;90.23;99506.63;4988551;28;20426;-52
2021/05/13 04:23:57;;;;;;;4.30;2.10;;;13.20;99.90;;;12.71;89.66;99500.06;4988388;28;20046;-52
2021/05/13 04:26:23;;;;;;;5.10;2.33;;;13.20;99.90;;;12.72;89.61;99510.34;4987973;28;20116;-50
2021/05/13 04:28:50;;;;;;;3.63;1.77;;;13.30;99.90;;;12.77;89.59;99507.97;4988633;28;20078;-51
2021/05/13 04:31:16;;;;;;;3.80;2.03;;;13.30;99.90;;;12.78;89.30;99504.34;4988296;28;20133;-51
2021/05/13 04:33:42;;;;;;;6.55;1.45;;;13.30;99.90;;;12.88;88.71;99504.06;4988520;28;20034;-51
2021/05/13 04:36:08;;;;;;;4.55;1.52;;;13.40;99.90;;;12.91;88.72;99506.31;4971260;28;20038;-47
2021/05/13 04:38:34;;;;;;;6.65;2.35;;;13.40;99.90;;;12.90;88.63;99513.34;4988118;28;20037;-52
2021/05/13 04:41:00;;;;;;;2.83;1.92;;;13.40;99.90;;;12.83;88.49;99507.22;4987539;28;20050;-52
2021/05/13 04:43:47;;;;;;;5.80;1.98;;;13.40;99.90;;;12.85;88.42;99499.22;4988921;28;20096;-52
2021/05/13 04:46:15;;;;;;;;;;;13.40;99.90;;;12.87;88.14;99505.06;4988896;28;20061;-51
2021/05/13 04:51:24;;;;;;;2.70;1.40;;;13.40;99.90;;;12.90;88.07;99508.13;4987380;28;20170;-49
2021/05/13 04:53:50;;;;;;;7.28;1.88;;;13.50;99.90;;;12.94;87.85;99506.78;4988217;28;20042;-52
2021/05/13 04:56:19;;;;;;;5.07;1.90;;;13.50;99.90;;;12.98;87.59;99504.59;4987977;28;20043;-51
2021/05/13 04:58:46;;;;;;;3.13;1.77;;;13.50;99.90;;;13.09;87.40;99508.56;4988191;28;20441;-52
2021/05/13 05:01:14;;;;;;;4.60;2.03;;;13.60;99.90;;;13.12;87.23;99502.97;4987079;28;20128;-50
2021/05/13 05:03:40;;;;;;;5.82;2.08;;;13.60;99.90;;;13.16;87.25;99499.81;4987068;28;20108;-51
2021/05/13 05:06:06;;;;;;;5.22;1.90;;;13.70;99.90;;;13.15;86.93;99499.97;4986881;28;20042;-52
2021/05/13 05:08:32;;;;;;;5.35;2.03;;;13.80;99.90;;;13.09;87.13;99495.47;4988623;28;20189;-52
2021/05/13 05:10:58;;;;;;;3.78;2.35;;;13.70;99.90;;;13.18;86.97;99499.66;4988126;28;20037;-52
2021/05/13 05:13:24;;;;;;;3.88;2.60;;;13.70;99.90;;;13.23;87.07;99502.53;4987833;28;20054;-52
2021/05/13 05:15:50;;;;;;;4.30;2.70;;;13.80;99.90;;;13.23;87.14;99498.06;4988519;28;20038;-50
2021/05/13 05:18:22;;;;;;;6.22;2.70;;;13.80;99.90;;;13.24;87.23;99488.41;4986151;28;20064;-50
2021/05/13 05:20:49;;;;;;;8.60;3.83;;;13.80;99.90;;;13.34;87.15;99493.34;4988374;28;20508;-49
2021/05/13 05:23:16;;;;;;;7.35;4.55;;;13.90;99.90;;;13.24;87.89;99493.66;4970737;28;20030;-53
2021/05/13 05:25:42;;;;;;;7.68;3.63;;;13.90;99.90;;;13.23;88.15;99481.59;4987554;28;20317;-46
2021/05/13 05:28:09;;;;;;;10.65;3.72;;;13.90;99.90;;;13.19;88.47;99480.34;4987520;28;20074;-51
2021/05/13 05:30:36;;;;;;;6.70;3.60;;;13.90;99.90;;;13.16;88.61;99483.31;4987460;28;20034;-51
2021/05/13 05:33:06;;;;;;;7.57;3.75;;;13.80;99.90;;;13.16;88.36;99483.31;4988478;28;20109;-51
2021/05/13 05:35:34;;;;;;;8.32;3.58;;;13.80;99.90;;;13.22;88.21;99490.44;4987812;28;20043;-49
2021/05/13 05:38:00;;;;;;;6.10;3.00;;;13.80;99.90;;;13.31;87.96;99491.09;4987486;28;20442;-46
2021/05/13 05:40:26;;;;;;;8.27;3.40;;;13.90;99.90;;;13.28;87.94;99490.47;4988089;28;20077;-50
2021/05/13 05:42:53;;;;;;;3.92;2.92;;;13.90;99.90;;;13.37;87.41;99488.56;4987496;28;20042;-50
2021/05/13 05:45:21;;;;;;;9.32;3.90;;;14.00;99.90;;;13.38;87.42;99478.91;4987231;28;20061;-50
2021/05/13 05:47:59;;;;;;;5.97;3.53;;;14.00;99.90;;;13.49;87.04;99481.84;4987267;28;20046;-50
2021/05/13 05:50:30;;;;;;;3.78;2.42;;;14.10;99.90;;;13.60;86.47;99481.34;4986872;28;20034;-51
2021/05/13 05:52:56;;;;;;;5.32;2.47;;;14.10;99.90;;;13.59;86.26;99481.53;4988051;28;20556;-49
2021/05/13 05:55:23;;;;;;;7.22;3.00;;;14.10;99.90;;;13.59;86.42;99479.72;4987175;28;20042;-50
2021/05/13 05:57:49;;;;;;;5.05;2.60;;;14.20;99.90;;;13.52;86.48;99486.72;4986858;28;20050;-52
2021/05/13 06:00:16;;;;;;;9.35;2.35;;;14.10;99.90;;;13.68;85.92;99485.66;4987255;28;20042;-52
2021/05/13 06:02:42;;;;;;;10.85;3.70;;;14.20;99.90;;;13.72;85.60;99483.44;4987317;28;20031;-49
2021/05/13 06:05:09;;;;;;;6.05;2.70;;;14.30;99.90;;;13.86;85.26;99482.56;4986175;28;20503;-48
2021/05/13 06:07:35;;;;;;;5.28;2.35;;;14.30;99.90;;;14.00;85.10;99491.34;4987150;28;20040;-49
2021/05/13 06:10:02;;;;;;;6.95;2.40;;;14.50;99.90;;;14.15;84.48;99487.63;4987384;28;20042;-53
2021/05/13 06:12:28;;;;;;;7.10;2.10;;;14.70;99.90;;;14.33;84.06;99483.69;4986069;28;20034;-50
2021/05/13 06:14:54;;;;;;;2.95;2.35;;;14.80;99.90;;;14.49;83.78;99484.22;4987772;28;20031;-51
2021/05/13 06:17:20;;;;;;;2.53;1.73;;;15.00;99.90;;;14.62;83.60;99475.63;4987855;28;20038;-53
2021/05/13 06:19:46;;;;;;;3.72;2.00;;;15.10;99.90;;;14.79;83.23;99478.72;4986847;28;20046;-53
2021/05/13 06:22:12;;;;;;;5.30;2.40;;;15.30;99.90;;;14.83;82.92;99479.94;4990872;28;20489;-46
2021/05/13 06:24:38;;;;;;;4.90;1.38;;;15.40;99.90;;;14.84;82.54;99482.38;4990147;28;20052;-46
2021/05/13 06:27:07;;;;;;;3.63;1.98;;;15.40;99.90;;;14.93;82.49;99480.38;4991622;28;20034;-47
2021/05/13 06:29:33;;;;;;;4.30;1.73;;;15.50;99.90;;;15.02;82.51;99483.66;4991032;28;20474;-47
2021/05/13 06:32:00;;;;;;;1.63;1.02;;;15.60;99.90;;;15.12;82.26;99484.09;4991415;28;20066;-53
2021/05/13 06:34:28;;;;;;;5.43;1.10;;;15.60;99.90;;;15.27;82.00;99475.03;4991478;28;20084;-52
2021/05/13 06:36:54;;;;;;;4.57;0.80;;;15.80;99.90;;;15.47;81.21;99475.06;4991175;28;20429;-51
2021/05/13 06:39:21;;;;;;;2.60;0.70;;;16.00;99.90;;;15.66;80.49;99478.75;4990784;28;20101;-52
2021/05/13 06:41:47;;;;;;;2.92;0.70;;;16.20;99.90;;;15.91;79.45;99479.75;4991590;28;20294;-46
2021/05/13 06:44:13;;;;;;;1.77;0.40;;;16.40;99.90;;;15.78;79.42;99473.69;4991137;28;20031;-46
2021/05/13 06:46:39;;;;;;;1.67;0.50;;;16.40;99.90;;;15.78;78.88;99478.94;4991048;28;20127;-48
2021/05/13 06:49:05;;;;;;;1.60;0.40;;;16.40;99.90;;;15.95;77.68;99474.91;4991218;28;20046;-50
2021/05/13 06:51:31;;;;;;;1.42;0.60;;;16.50;99.90;;;16.06;77.16;99482.19;4990778;28;20125;-49
2021/05/13 06:53:57;;;;;;;1.27;0.40;;;16.70;99.90;;;16.17;76.64;99478.09;4991121;28;20133;-51
2021/05/13 06:56:23;;;;;;;1.52;0.30;;;16.80;99.90;;;16.35;76.32;99475.66;4990666;28;20038;-51
2021/05/13 06:58:49;;;;;;;2.15;0.40;;;16.90;99.90;;;16.52;75.95;99481.28;4990506;28;20042;-53
2021/05/13 07:01:15;;;;;;;0.65;0.30;;;17.10;99.90;;;16.38;76.25;99477.88;4990677;28;20350;-49
2021/05/13 07:03:42;;;;;;;3.30;0.35;;;17.10;99.90;;;16.47;76.29;99478.47;4990154;28;20108;-50
2021/05/13 07:06:08;;;;;;;3.00;0.30;;;17.10;99.90;;;16.75;75.02;99475.56;4990708;28;20312;-49
2021/05/13 07:08:34;;;;;;;0.90;0.30;;;17.30;99.90;;;16.84;75.04;99471.69;4990711;28;20049;-49
2021/05/13 07:11:00;;;;;;;0.55;0.20;;;17.40;99.90;;;16.97;74.71;99470.81;4973195;28;20034;-46
2021/05/13 07:13:27;;;;;;;0.50;0.40;;;17.60;99.90;;;16.89;74.77;99472.69;4973123;28;20038;-51
2021/05/13 07:15:53;;;;;;;5.35;0.30;;;17.50;99.90;;;17.08;73.97;99465.69;4990490;28;20039;-38
2021/05/13 07:18:19;;;;;;;1.52;0.30;;;17.60;99.90;;;17.27;73.22;99469.22;4990786;28;20038;-53
2021/05/13 07:20:45;;;;;;;1.00;0.30;;;17.80;99.90;;;17.18;73.24;99462.59;4990336;28;20030;-50
2021/05/13 07:23:12;;;;;;;4.00;0.30;;;17.90;99.90;;;17.41;72.94;99473.41;4990149;28;20050;-50
2021/05/13 07:25:38;;;;;;;1.58;0.30;;;18.10;99.90;;;17.31;73.21;99464.34;4990109;28;20532;-47
2021/05/13 07:28:04;;;;;;;3.53;0.30;;;18.20;99.90;;;17.38;72.91;99470.38;4990137;28;20042;-46
2021/05/13 07:30:31;;;;;;;3.72;0.30;;;18.20;99.90;;;17.08;73.58;99470.16;4990280;28;20054;-47
2021/05/13 07:32:57;;;;;;;1.38;0.30;;;18.00;99.90;;;17.12;73.56;99471.34;4988912;28;20046;-51
2021/05/13 07:35:23;;;;;;;1.55;0.30;;;18.00;99.90;;;17.09;73.77;99467.31;4989977;28;20026;-49
2021/05/13 07:37:49;;;;;;;2.45;0.47;;;17.90;99.90;;;16.93;74.23;99473.06;4989923;28;20565;-48
2021/05/13 07:40:22;;;;;;;5.10;0.52;;;17.80;99.90;;;16.81;74.44;99464.22;4990013;28;20142;-50
2021/05/13 07:42:49;;;;;;;2.38;0.40;;;17.70;99.90;;;16.51;75.44;99469.16;4989932;28;20062;-46
2021/05/13 07:45:16;;;;;;;3.15;0.65;;;17.50;99.90;;;16.46;75.53;99472.41;4989968;28;20066;-47
2021/05/13 07:47:44;;;;;;;1.70;0.40;;;17.30;99.90;;;16.43;75.33;99472.81;4989706;28;20034;-47
2021/05/13 07:50:16;;;;;;;3.28;0.45;;;17.20;99.90;;;16.34;76.09;99468.78;4989791;28;20038;-48
2021/05/13 07:52:43;;;;;;;1.52;0.60;;;17.10;99.90;;;16.05;76.49;99474.50;4990151;28;20100;-50
2021/05/13 07:55:11;;;;;;;1.50;0.40;;;17.10;99.90;;;16.03;76.94;99476.53;4972581;28;20461;-48
2021/05/13 07:57:37;;;;;;;2.95;0.50;;;16.80;99.90;;;16.42;75.61;99470.41;4989531;28;20050;-43
2021/05/13 08:00:08;;;;;;;1.50;0.50;;;17.00;99.90;;;16.43;75.74;99472.00;4989542;28;20474;-40
2021/05/13 08:02:34;;;;;;;1.65;0.45;;;17.10;99.90;;;16.47;75.72;99478.47;4989685;28;20052;-40
2021/05/13 08:05:00;;;;;;;1.40;0.50;;;17.20;99.90;;;16.47;75.54;99479.28;4989406;28;20125;-40
2021/05/13 08:07:26;;;;;;;1.70;0.70;;;17.20;99.90;;;16.76;74.65;99482.44;4989396;28;20084;-41
2021/05/13 08:09:52;;;;;;;2.47;0.77;;;17.40;99.90;;;16.84;74.78;99488.28;4989379;28;20041;-41
2021/05/13 08:12:19;;;;;;;1.77;0.85;;;17.50;99.90;;;16.72;75.59;99486.50;4989234;28;20513;-40
2021/05/13 08:14:45;;;;;;;2.60;0.20;;;17.50;99.90;;;16.46;76.41;99482.13;4988689;28;20042;-40
2021/05/13 08:17:12;;;;;;;3.25;0.52;;;17.30;99.90;;;16.17;77.27;99491.25;4987573;28;20533;-39
2021/05/13 08:19:39;;;;;;;1.20;0.25;;;17.00;99.90;;;15.98;77.76;99485.03;4986246;28;20042;-39
2021/05/13 08:22:05;;;;;;;1.27;0.40;;;16.80;99.90;;;15.93;78.23;99488.25;4986906;28;20042;-40
2021/05/13 08:24:32;;;;;;;1.17;0.40;;;16.70;99.90;;;15.91;78.40;99492.91;4986483;28;20034;-38
2021/05/13 08:27:01;;;;;;;1.45;0.50;;;16.60;99.90;;;15.95;78.16;99495.94;4968844;28;20117;-40
2021/05/13 08:29:28;;;;;;;0.70;0.45;;;16.60;99.90;;;15.91;78.63;99492.09;4987543;28;20054;-39
2021/05/13 08:31:55;;;;;;;2.22;0.60;;;16.60;99.90;;;15.82;79.00;99499.34;4987649;28;20158;-39
2021/05/13 08:34:21;;;;;;;3.03;0.50;;;16.60;99.90;;;15.97;78.83;99498.34;4988712;28;20152;-40
2021/05/13 08:36:47;;;;;;;2.65;1.48;;;16.60;99.90;;;16.04;79.09;99499.16;4994585;22;20062;-39
2021/05/13 08:39:13;;;;;;;2.60;1.75;;;16.70;99.90;;;16.22;78.88;99500.13;4989288;28;20245;-39
2021/05/13 08:41:40;;;;;;;4.63;2.25;;;16.90;99.90;;;16.60;78.08;99494.19;4989129;28;20109;-39
2021/05/13 08:44:09;;;;;;;2.22;1.38;;;17.10;99.90;;;17.03;76.25;99504.97;4988407;28;20042;-39
2021/05/13 08:46:37;;;;;;;2.58;1.10;;;17.50;99.90;;;17.34;75.16;99506.88;4971262;28;20026;-39
2021/05/13 08:49:05;;;;;;;2.92;1.00;;;17.80;99.90;;;17.35;74.95;99503.22;4988794;28;20057;-39
2021/05/13 08:51:37;;;;;;;2.75;1.00;;;18.00;99.90;;;17.15;75.26;99513.84;4988961;28;20152;-53
2021/05/13 08:54:04;;;;;;;1.77;1.27;;;18.00;99.90;;;17.02;76.82;99520.97;4955020;28;20030;-57
2021/05/13 08:56:30;;;;;;;2.65;2.45;;;17.80;99.90;;;16.89;76.96;99514.78;4988553;28;20367;-52
2021/05/13 08:59:04;;;;;;;6.32;2.47;;;17.60;99.90;;;16.74;77.38;99516.84;4988233;28;20026;-58
2021/05/13 09:01:33;;;;;;;2.33;2.13;;;17.50;99.90;;;16.78;77.35;99522.50;4988843;28;20061;-53
2021/05/13 09:04:01;;;;;;;3.70;3.28;;;17.50;99.90;;;16.83;77.01;99530.56;4968045;28;20034;-54
2021/05/13 09:06:39;;;;;;;4.88;3.28;;;17.50;99.90;;;16.71;77.40;99524.34;4984447;28;20054;-52
2021/05/13 09:09:14;;;;;;;2.47;1.98;;;17.50;99.90;;;16.77;77.29;99524.31;4988578;28;20042;-55
2021/05/13 09:12:12;;;;;;;2.60;2.40;;;17.50;99.90;;;16.89;76.13;99520.03;4988600;28;20088;-56
2021/05/13 09:14:37;;;;;;;2.80;2.30;;;17.60;99.90;;;16.95;76.20;99531.56;4953952;28;20050;-55
2021/05/13 09:17:03;;;;;;;2.85;2.15;;;17.60;99.90;;;17.15;75.61;99523.56;4970709;28;20512;-54
2021/05/13 09:19:37;;;;;;;5.93;2.42;;;17.80;99.90;;;17.63;74.09;99530.97;4988561;28;20042;-58
2021/05/13 09:22:10;;;;;;;5.30;3.10;;;18.20;99.90;;;18.03;72.89;99532.31;4988201;28;20035;-53
2021/05/13 09:24:42;;;;;;;2.15;1.88;;;18.70;99.90;;;18.39;71.83;99530.81;4988303;28;20117;-54
2021/05/13 09:27:36;;;;;;;2.00;1.45;;;19.10;99.90;;;18.84;68.32;99528.75;4986015;28;20450;-53
2021/05/13 09:30:13;;;;;;;2.85;1.77;;;19.50;99.90;;;19.35;67.69;99523.00;4986563;28;20524;-53
2021/05/13 09:32:42;;;;;;;2.85;1.20;;;20.00;99.90;;;19.45;66.55;99525.09;4988219;28;20121;-55
2021/05/13 09:35:29;;;;;;;2.88;1.73;;;20.30;99.90;;;19.65;64.01;99519.56;4988105;28;20053;-51
2021/05/13 09:38:03;;;;;;;1.60;1.42;;;20.50;99.90;;;18.91;65.80;99532.09;4986800;28;20050;-54
2021/05/13 09:40:50;;;;;;;2.65;1.90;;;20.00;99.90;;;19.21;65.86;99522.38;4986419;28;20504;-54
2021/05/13 09:43:25;;;;;;;1.60;1.23;;;19.90;99.90;;;20.92;61.71;99525.88;4986327;28;20117;-54
2021/05/13 09:46:09;;;;;;;1.65;1.35;;;21.00;99.90;;;20.90;60.63;99521.84;4983493;28;20049;-52
2021/05/13 09:48:43;;;;;;;1.10;0.90;;;21.60;99.90;;;20.39;61.45;99521.59;4988070;28;20137;-48
2021/05/13 09:51:29;;;;;;;0.75;0.73;;;21.30;99.90;;;19.61;62.98;99523.69;4986191;28;20034;-49
2021/05/13 09:54:15;;;;;;;3.08;0.77;;;20.60;99.90;;;19.61;64.04;99521.03;4986774;28;20413;-50
2021/05/13 09:56:54;;;;;;;4.68;0.43;;;20.30;99.90;;;19.48;64.56;99520.16;4982313;28;20049;-50
2021/05/13 09:59:21;;;;;;;2.72;0.60;;;20.30;99.90;;;19.55;65.17;99523.56;4989825;28;20110;-52
2021/05/13 10:01:52;;;;;;;1.30;0.50;;;20.40;99.90;;;19.46;65.38;99516.94;4991219;28;20039;-51
2021/05/13 10:04:18;;;;;;;0.88;0.50;;;20.40;99.90;;;19.50;65.59;99512.00;4991342;28;20088;-51
2021/05/13 10:06:45;;;;;;;5.07;0.40;;;20.40;99.90;;;19.43;65.50;99517.38;4988808;28;20125;-53
2021/05/13 10:09:15;;;;;;;3.08;0.32;;;20.40;99.90;;;19.29;65.08;99515.97;4989089;28;20505;-55
2021/05/13 10:11:51;;;;;;;2.20;0.28;;;20.20;99.90;;;19.02;65.73;99522.63;4990571;28;20505;-50
2021/05/13 10:14:19;;;;;;;4.00;0.20;;;20.00;99.90;;;19.03;66.26;99511.03;4988876;28;20544;-49
2021/05/13 10:16:47;;;;;;;1.15;0.10;;;19.80;99.90;;;19.07;65.85;99520.13;4991859;28;20046;-52
2021/05/13 10:19:20;;;;;;;0.47;0.10;;;19.90;99.90;;;19.14;65.14;99515.56;4974298;28;20514;-49
2021/05/13 10:21:46;;;;;;;3.92;0.20;;;19.90;99.90;;;19.09;64.82;99521.50;4991397;28;20130;-53
2021/05/13 10:24:13;;;;;;;0.85;0.08;;;20.00;99.90;;;19.16;63.99;99514.31;4991571;28;20113;-48
2021/05/13 10:26:41;;;;;;;1.10;0.17;;;20.00;99.90;;;19.08;64.57;99517.25;4989397;28;20054;-51
2021/05/13 10:29:19;;;;;;;2.17;0.17;;;20.00;99.90;;;19.08;64.08;99519.09;4990535;28;20046;-53
2021/05/13 10:31:48;;;;;;;2.42;0.17;;;19.90;99.90;;;19.20;64.21;99514.69;4990102;28;20050;-55